Time;durP1;ratioP1;P1;durP2;ratioP2;P2;SDS_P1;SDS_P2;PMS_P1;PMS_P2;Temp;Humidity;BMP_temperature;BMP_pressure;BME280_temperature;BME280_humidity;BME280_pressure;Samples;Min_cycle;Max_cycle;Signal;HPM_P1;HPM_P2
2023/09/29 00:00:48;;;;;;;13.20;6.15;;;;;;;15.91;100.00;101488.09;5089789;28;20115;-66
2023/09/29 00:03:15;;;;;;;16.83;5.82;;;;;;;15.94;100.00;101498.41;5089621;28;20024;-66
2023/09/29 00:05:43;;;;;;;13.40;5.35;;;;;;;15.94;100.00;101493.03;5088275;28;20525;-66
2023/09/29 00:08:09;;;;;;;12.93;4.72;;;;;;;15.97;100.00;101492.59;5089673;28;20024;-66
2023/09/29 00:10:39;;;;;;;13.93;4.70;;;;;;;15.98;100.00;101489.69;5089627;28;20032;-66
2023/09/29 00:13:05;;;;;;;8.80;4.32;;;;;;;16.00;100.00;101492.16;5088152;28;20562;-66
2023/09/29 00:15:32;;;;;;;14.98;5.22;;;;;;;16.03;100.00;101485.53;5089445;28;20081;-66
2023/09/29 00:17:57;;;;;;;12.45;5.05;;;;;;;16.06;100.00;101483.25;5089601;28;20039;-67
2023/09/29 00:20:25;;;;;;;12.38;4.72;;;;;;;16.07;100.00;101486.75;5089113;28;20040;-66
2023/09/29 00:22:54;;;;;;;10.07;4.43;;;;;;;16.13;100.00;101488.56;5089155;28;20537;-66
2023/09/29 00:25:20;;;;;;;12.27;4.57;;;;;;;16.13;100.00;101486.69;5090178;28;20070;-66
2023/09/29 00:27:46;;;;;;;13.88;5.78;;;;;;;16.13;100.00;101484.00;5089923;28;20071;-66
2023/09/29 00:30:12;;;;;;;17.38;5.82;;;;;;;16.17;100.00;101490.59;5089264;28;20098;-66
2023/09/29 00:32:48;;;;;;;12.75;4.88;;;;;;;16.19;100.00;101484.97;5089435;28;20165;-66
2023/09/29 00:35:24;;;;;;;13.45;5.20;;;;;;;16.16;100.00;101471.97;5089376;28;20115;-66
2023/09/29 00:38:00;;;;;;;12.30;5.85;;;;;;;16.22;100.00;101489.97;5089320;28;20040;-66
2023/09/29 00:40:26;;;;;;;14.73;6.72;;;;;;;16.22;100.00;101487.25;5089263;28;20027;-66
2023/09/29 00:42:57;;;;;;;12.75;5.72;;;;;;;16.24;100.00;101487.03;5088958;28;20136;-66
2023/09/29 00:45:24;;;;;;;13.80;6.35;;;;;;;16.24;100.00;101478.94;5089239;28;20028;-66
2023/09/29 00:47:58;;;;;;;18.20;6.10;;;;;;;16.25;100.00;101477.94;5089160;28;20047;-67
2023/09/29 00:50:28;;;;;;;13.65;5.15;;;;;;;16.26;100.00;101474.19;5089207;28;20032;-66
2023/09/29 00:52:59;;;;;;;11.68;4.97;;;;;;;16.26;100.00;101479.56;5089166;28;20025;-66
2023/09/29 00:55:27;;;;;;;15.57;5.03;;;;;;;16.24;100.00;101477.06;5089073;28;20483;-66
2023/09/29 00:57:58;;;;;;;14.55;5.03;;;;;;;16.25;100.00;101473.38;5089004;28;20408;-66
2023/09/29 01:00:31;;;;;;;18.17;6.35;;;;;;;16.25;100.00;101464.47;5089106;28;20039;-66
2023/09/29 01:02:57;;;;;;;11.63;5.97;;;;;;;16.26;100.00;101460.72;5089000;28;20031;-66
2023/09/29 01:05:23;;;;;;;14.82;5.72;;;;;;;16.27;100.00;101465.91;5089101;28;20544;-66
2023/09/29 01:07:49;;;;;;;8.23;4.85;;;;;;;16.29;100.00;101461.09;5088949;28;20031;-66
2023/09/29 01:10:14;;;;;;;12.15;5.22;;;;;;;16.29;100.00;101465.66;5091732;28;20039;-66
2023/09/29 01:12:40;;;;;;;10.07;5.50;;;;;;;16.30;100.00;101465.47;5092787;28;20026;-66
2023/09/29 01:15:07;;;;;;;12.05;7.35;;;;;;;16.30;100.00;101470.84;5092695;28;20028;-66
2023/09/29 01:17:32;;;;;;;10.25;4.57;;;;;;;16.31;100.00;101461.72;5092855;28;20073;-66
2023/09/29 01:19:58;;;;;;;12.02;5.20;;;;;;;16.32;100.00;101460.69;5092745;28;20028;-66
2023/09/29 01:22:23;;;;;;;11.32;5.75;;;;;;;16.29;100.00;101450.34;5092307;28;20056;-66
2023/09/29 01:24:48;;;;;;;8.85;5.05;;;;;;;16.27;100.00;101447.06;5092627;28;20108;-66
2023/09/29 01:27:14;;;;;;;13.43;5.50;;;;;;;16.34;100.00;101457.75;5091080;28;20035;-66
2023/09/29 01:29:44;;;;;;;10.30;5.05;;;;;;;16.34;100.00;101455.88;5092489;28;20139;-66
2023/09/29 01:32:12;;;;;;;10.68;4.75;;;;;;;16.34;100.00;101450.50;5092380;28;20031;-66
2023/09/29 01:34:38;;;;;;;13.35;5.40;;;;;;;16.36;100.00;101445.72;5074253;28;20035;-66
2023/09/29 01:37:04;;;;;;;11.70;4.93;;;;;;;16.35;100.00;101430.63;5092318;28;20051;-66
2023/09/29 01:39:30;;;;;;;13.27;5.10;;;;;;;16.38;100.00;101432.06;5092295;28;20066;-66
2023/09/29 01:41:56;;;;;;;7.53;4.03;;;;;;;16.39;100.00;101431.00;5092097;28;20970;-66
2023/09/29 01:44:21;;;;;;;10.02;4.38;;;;;;;16.39;100.00;101426.44;5092033;28;20030;-66
2023/09/29 01:46:49;;;;;;;8.95;4.47;;;;;;;16.38;100.00;101421.28;5092012;28;20067;-66
2023/09/29 01:49:17;;;;;;;10.07;4.10;;;;;;;16.41;100.00;101424.34;5092211;28;20031;-66
2023/09/29 01:51:45;;;;;;;8.40;4.93;;;;;;;16.43;100.00;101416.06;5091874;28;20536;-66
2023/09/29 01:54:11;;;;;;;8.65;4.60;;;;;;;16.41;100.00;101420.84;5092052;28;20081;-66
2023/09/29 01:56:36;;;;;;;8.65;5.28;;;;;;;16.44;100.00;101418.50;5090673;28;20479;-66
2023/09/29 01:59:02;;;;;;;11.82;5.07;;;;;;;16.42;100.00;101409.81;5091969;28;20047;-66
2023/09/29 02:01:28;;;;;;;14.25;5.82;;;;;;;16.46;100.00;101412.09;5090661;28;20031;-66
2023/09/29 02:03:54;;;;;;;8.05;4.45;;;;;;;16.47;100.00;101409.16;5091794;28;20030;-66
2023/09/29 02:06:19;;;;;;;8.40;4.20;;;;;;;16.48;100.00;101404.59;5091724;28;20036;-66
2023/09/29 02:08:44;;;;;;;11.80;3.83;;;;;;;16.49;100.00;101404.41;5091733;28;20062;-66
2023/09/29 02:11:10;;;;;;;6.55;3.60;;;;;;;16.50;100.00;101402.53;5091546;28;20055;-66
2023/09/29 02:13:35;;;;;;;9.35;4.22;;;;;;;16.49;100.00;101398.19;5091632;28;20074;-66
2023/09/29 02:16:02;;;;;;;7.13;3.92;;;;;;;16.52;100.00;101403.94;5091474;28;20024;-67
2023/09/29 02:18:29;;;;;;;9.60;3.75;;;;;;;16.53;100.00;101391.28;5091586;28;20028;-67
2023/09/29 02:20:55;;;;;;;9.95;3.95;;;;;;;16.54;100.00;101390.28;5091420;28;20024;-66
2023/09/29 02:23:22;;;;;;;7.25;3.83;;;;;;;16.55;100.00;101390.03;5091294;28;20528;-66
2023/09/29 02:25:48;;;;;;;10.27;4.47;;;;;;;16.50;100.00;101380.97;5091449;28;20043;-66
2023/09/29 02:28:14;;;;;;;7.10;3.65;;;;;;;16.58;100.00;101396.84;5089734;28;20032;-66
2023/09/29 02:30:40;;;;;;;7.78;3.85;;;;;;;16.59;100.00;101393.13;5091266;28;20603;-66
2023/09/29 02:33:06;;;;;;;6.72;3.08;;;;;;;16.60;100.00;101390.19;5091081;28;20042;-66
2023/09/29 02:35:32;;;;;;;7.30;3.92;;;;;;;16.61;100.00;101396.38;5091131;28;20027;-67
2023/09/29 02:37:58;;;;;;;7.80;4.18;;;;;;;16.61;100.00;101386.47;5091173;28;20028;-66
2023/09/29 02:40:24;;;;;;;9.52;3.92;;;;;;;16.62;100.00;101388.09;5091211;28;20471;-66
2023/09/29 02:42:49;;;;;;;7.07;3.50;;;;;;;16.64;100.00;101386.00;5090952;28;20052;-66
2023/09/29 02:45:14;;;;;;;6.43;3.13;;;;;;;16.66;100.00;101377.69;5091010;28;20028;-66
2023/09/29 02:47:41;;;;;;;5.63;3.17;;;;;;;16.64;100.00;101383.31;5090953;28;20052;-66
2023/09/29 02:50:11;;;;;;;6.85;3.20;;;;;;;16.70;100.00;101378.09;5090958;28;20023;-66
2023/09/29 02:52:38;;;;;;;8.85;3.35;;;;;;;16.66;100.00;101364.22;5090820;28;20058;-66
2023/09/29 02:55:04;;;;;;;6.20;2.80;;;;;;;16.73;100.00;101369.56;5092161;28;20383;-66
2023/09/29 02:57:30;;;;;;;5.95;2.83;;;;;;;16.74;100.00;101379.25;5090938;28;20032;-66
2023/09/29 02:59:57;;;;;;;4.82;2.85;;;;;;;16.75;100.00;101362.88;5090680;28;20035;-66
2023/09/29 03:02:23;;;;;;;6.25;3.35;;;;;;;16.77;100.00;101365.38;5090801;28;20028;-66
2023/09/29 03:04:50;;;;;;;6.32;3.15;;;;;;;16.78;100.00;101354.38;5090719;28;20395;-66
2023/09/29 03:07:15;;;;;;;5.25;3.00;;;;;;;16.76;100.00;101351.06;5090651;28;20028;-66
2023/09/29 03:09:41;;;;;;;5.47;2.60;;;;;;;16.75;100.00;101338.66;5090234;28;20051;-66
2023/09/29 03:12:07;;;;;;;9.52;3.42;;;;;;;16.79;100.00;101347.97;5090504;28;20039;-66
2023/09/29 03:14:32;;;;;;;7.30;3.33;;;;;;;16.83;100.00;101348.31;5089131;28;20039;-66
2023/09/29 03:17:00;;;;;;;8.32;3.65;;;;;;;16.84;100.00;101352.66;5090427;28;20032;-66
2023/09/29 03:19:27;;;;;;;7.53;3.47;;;;;;;16.85;100.00;101347.06;5090466;28;20387;-66
2023/09/29 03:21:53;;;;;;;6.18;3.97;;;;;;;16.87;100.00;101338.72;5090145;28;20031;-67
2023/09/29 03:24:18;;;;;;;4.90;2.78;;;;;;;16.89;100.00;101352.81;5090300;28;20036;-66
2023/09/29 03:26:44;;;;;;;8.55;3.85;;;;;;;16.90;100.00;101345.53;5090231;28;20032;-66
2023/09/29 03:29:10;;;;;;;4.93;3.22;;;;;;;16.91;100.00;101345.31;5090153;28;20028;-66
2023/09/29 03:31:35;;;;;;;8.07;3.08;;;;;;;16.95;100.00;101343.84;5089636;28;20395;-66
2023/09/29 03:34:02;;;;;;;5.63;3.45;;;;;;;16.97;100.00;101333.63;5090079;28;20067;-66
2023/09/29 03:36:28;;;;;;;5.38;2.78;;;;;;;16.94;100.00;101326.00;5089958;28;20032;-66
2023/09/29 03:38:54;;;;;;;7.07;3.33;;;;;;;16.99;100.00;101323.44;5089938;28;20114;-66
2023/09/29 03:41:23;;;;;;;4.57;2.80;;;;;;;17.01;100.00;101318.66;5089779;28;20123;-66
2023/09/29 03:43:49;;;;;;;7.40;3.33;;;;;;;17.02;100.00;101323.00;5089913;28;20549;-66
2023/09/29 03:46:19;;;;;;;8.15;3.85;;;;;;;16.99;100.00;101309.97;5089907;28;20118;-66
2023/09/29 03:48:47;;;;;;;4.00;2.75;;;;;;;17.02;100.00;101306.00;5089855;28;20024;-66
2023/09/29 03:51:22;;;;;;;6.35;2.50;;;;;;;17.03;100.00;101300.41;5089735;28;20032;-66
2023/09/29 03:53:48;;;;;;;5.60;2.85;;;;;;;17.03;100.00;101295.00;5090200;28;20040;-66
2023/09/29 03:56:13;;;;;;;5.20;2.78;;;;;;;17.08;100.00;101300.53;5089696;28;20119;-66
2023/09/29 03:58:39;;;;;;;5.35;3.67;;;;;;;17.09;100.00;101296.78;5089686;28;20454;-66
2023/09/29 04:01:04;;;;;;;9.27;3.72;;;;;;;17.09;100.00;101299.47;5089592;28;20093;-66
2023/09/29 04:03:29;;;;;;;3.95;2.80;;;;;;;17.08;100.00;101289.75;5089656;28;20554;-67
2023/09/29 04:05:55;;;;;;;6.07;2.85;;;;;;;17.09;100.00;101296.78;5089582;28;20043;-66
2023/09/29 04:08:20;;;;;;;4.13;2.45;;;;;;;17.10;100.00;101286.81;5089508;28;20032;-66
2023/09/29 04:10:46;;;;;;;5.03;3.25;;;;;;;17.11;100.00;101282.25;5088168;28;20043;-67
2023/09/29 04:13:11;;;;;;;6.03;2.70;;;;;;;17.12;100.00;101282.03;5088416;28;20031;-66
2023/09/29 04:15:37;;;;;;;6.43;3.00;;;;;;;17.13;100.00;101275.56;5089519;28;20031;-67
2023/09/29 04:18:02;;;;;;;4.00;2.63;;;;;;;17.12;100.00;101278.50;5089518;28;20023;-66
2023/09/29 04:20:28;;;;;;;8.48;3.10;;;;;;;17.11;100.00;101274.16;5089479;28;20640;-66
2023/09/29 04:22:54;;;;;;;6.68;2.60;;;;;;;17.08;100.00;101278.13;5089152;28;20050;-67
2023/09/29 04:25:19;;;;;;;4.43;2.60;;;;;;;17.07;100.00;101280.00;5089315;28;20144;-67
2023/09/29 04:27:44;;;;;;;13.60;3.78;;;;;;;17.12;100.00;101281.19;5089453;28;20043;-66
2023/09/29 04:30:12;;;;;;;5.82;2.63;;;;;;;17.08;100.00;101276.28;5088046;28;20895;-66
2023/09/29 04:32:38;;;;;;;5.15;2.40;;;;;;;17.15;100.00;101275.34;5089403;28;20501;-66
2023/09/29 04:35:05;;;;;;;5.68;3.00;;;;;;;17.15;100.00;101265.38;5089147;28;20032;-67
2023/09/29 04:37:30;;;;;;;6.60;3.05;;;;;;;17.14;100.00;101271.03;5089263;28;20046;-66
2023/09/29 04:39:56;;;;;;;5.53;3.55;;;;;;;17.17;100.00;101267.84;5089049;28;20032;-68
2023/09/29 04:42:22;;;;;;;6.95;3.03;;;;;;;17.16;100.00;101272.44;5089154;28;20088;-66
2023/09/29 04:44:47;;;;;;;7.20;3.33;;;;;;;17.20;100.00;101267.41;5091151;28;20123;-66
2023/09/29 04:47:12;;;;;;;4.13;2.45;;;;;;;17.20;100.00;101267.41;5093357;28;20052;-66
2023/09/29 04:49:38;;;;;;;6.55;3.53;;;;;;;17.20;100.00;101264.69;5093149;28;20035;-66
2023/09/29 04:52:03;;;;;;;8.93;3.42;;;;;;;17.18;100.00;101246.06;5093130;28;20496;-66
2023/09/29 04:54:29;;;;;;;4.13;2.97;;;;;;;17.15;100.00;101241.13;5091656;28;20376;-66
2023/09/29 04:56:54;;;;;;;4.80;3.08;;;;;;;17.18;100.00;101242.53;5092968;28;20402;-66
2023/09/29 04:59:19;;;;;;;7.30;3.03;;;;;;;17.22;100.00;101243.72;5092975;28;20035;-66
2023/09/29 05:01:45;;;;;;;5.65;3.42;;;;;;;17.28;100.00;101256.28;5091702;28;20113;-66
2023/09/29 05:04:10;;;;;;;7.60;3.05;;;;;;;17.30;100.00;101265.78;5092870;28;20032;-66
2023/09/29 05:06:35;;;;;;;5.22;3.38;;;;;;;17.30;100.00;101254.19;5093040;28;20028;-66
2023/09/29 05:09:01;;;;;;;5.68;3.10;;;;;;;17.31;100.00;101251.22;5091451;28;20060;-66
2023/09/29 05:11:27;;;;;;;5.22;3.40;;;;;;;17.31;100.00;101253.94;5092822;28;20036;-66
2023/09/29 05:13:54;;;;;;;5.15;2.75;;;;;;;17.34;100.00;101252.66;5092639;28;20032;-66
2023/09/29 05:16:19;;;;;;;4.45;2.58;;;;;;;17.31;100.00;101245.84;5092489;28;20479;-66
2023/09/29 05:18:45;;;;;;;8.80;3.90;;;;;;;17.34;100.00;101241.84;5092768;28;20028;-66
2023/09/29 05:21:11;;;;;;;6.95;3.63;;;;;;;17.36;100.00;101245.16;5092520;28;20701;-66
2023/09/29 05:23:37;;;;;;;5.88;3.38;;;;;;;17.36;100.00;101237.06;5093322;28;20115;-66
2023/09/29 05:26:05;;;;;;;4.97;2.80;;;;;;;17.37;100.00;101240.56;5092744;28;20406;-66
2023/09/29 05:28:32;;;;;;;6.95;3.33;;;;;;;17.36;100.00;101231.66;5092316;28;20040;-67
2023/09/29 05:30:57;;;;;;;5.32;3.10;;;;;;;17.37;100.00;101237.88;5092507;28;20111;-68
2023/09/29 05:33:23;;;;;;;5.85;3.30;;;;;;;17.33;100.00;101232.13;5092235;28;20217;-68
2023/09/29 05:35:49;;;;;;;5.97;2.72;;;;;;;17.33;100.00;101226.75;5092046;28;20119;-72
2023/09/29 05:38:15;;;;;;;5.85;3.10;;;;;;;17.35;100.00;101238.13;5092112;28;20559;-72
2023/09/29 05:40:40;;;;;;;5.20;2.80;;;;;;;17.37;100.00;101240.56;5091908;28;20515;-71
2023/09/29 05:43:09;;;;;;;5.05;2.97;;;;;;;17.35;100.00;101227.34;5090709;28;20036;-71
2023/09/29 05:45:38;;;;;;;3.78;2.78;;;;;;;17.37;100.00;101238.72;5091958;28;20027;-71
2023/09/29 05:48:04;;;;;;;7.20;3.42;;;;;;;17.32;100.00;101225.13;5090859;28;20504;-72
2023/09/29 05:50:29;;;;;;;5.18;3.20;;;;;;;17.37;100.00;101229.78;5091737;28;20097;-71
2023/09/29 05:52:56;;;;;;;5.78;2.90;;;;;;;17.39;100.00;101236.59;5091623;28;20074;-71
2023/09/29 05:55:22;;;;;;;4.93;3.13;;;;;;;17.40;100.00;101232.88;5090933;28;20032;-71
2023/09/29 05:57:47;;;;;;;4.65;3.03;;;;;;;17.40;100.00;101232.88;5091563;28;20096;-71
2023/09/29 06:00:13;;;;;;;5.28;2.97;;;;;;;17.43;100.00;101236.97;5091805;28;20070;-71
2023/09/29 06:02:40;;;;;;;7.60;3.63;;;;;;;17.41;100.00;101236.38;5091124;28;20032;-72
2023/09/29 06:05:06;;;;;;;5.00;2.80;;;;;;;17.45;100.00;101235.69;5090967;28;20153;-72
2023/09/29 06:07:32;;;;;;;6.32;3.00;;;;;;;17.46;100.00;101234.63;5090624;28;20056;-72
2023/09/29 06:09:57;;;;;;;5.82;3.15;;;;;;;17.46;100.00;101223.00;5090620;28;20108;-71
2023/09/29 06:12:23;;;;;;;4.40;3.47;;;;;;;17.46;100.00;101225.72;5091010;28;20032;-71
2023/09/29 06:14:48;;;;;;;6.38;3.05;;;;;;;17.49;100.00;101236.03;5090202;28;20060;-71
2023/09/29 06:17:13;;;;;;;6.93;2.92;;;;;;;17.51;100.00;101231.22;5091434;28;20402;-71
2023/09/29 06:19:41;;;;;;;5.63;2.97;;;;;;;17.56;100.00;101239.44;5090696;28;20138;-71
2023/09/29 06:22:06;;;;;;;5.95;2.80;;;;;;;17.58;100.00;101239.19;5089314;28;20060;-71
2023/09/29 06:24:31;;;;;;;6.35;3.45;;;;;;;17.59;100.00;101235.47;5072598;28;20079;-71
2023/09/29 06:26:56;;;;;;;6.18;2.83;;;;;;;17.69;100.00;101254.59;5089805;28;20067;-71
2023/09/29 06:29:22;;;;;;;3.67;3.10;;;;;;;17.72;100.00;101246.84;5091134;28;20032;-69
2023/09/29 06:31:47;;;;;;;5.57;3.00;;;;;;;17.75;100.00;101248.25;5091052;28;20399;-69
2023/09/29 06:34:12;;;;;;;9.55;5.03;;;;;;;17.74;100.00;101235.81;5091112;28;20023;-71
2023/09/29 06:36:38;;;;;;;8.15;3.42;;;;;;;17.77;100.00;101239.91;5091109;28;20116;-71
2023/09/29 06:39:04;;;;;;;6.03;3.40;;;;;;;17.78;100.00;101236.16;5089642;28;20047;-71
2023/09/29 06:41:29;;;;;;;5.53;3.58;;;;;;;17.79;100.00;101248.56;5089637;28;20039;-71
2023/09/29 06:43:54;;;;;;;5.15;3.15;;;;;;;17.80;100.00;101242.19;5090620;28;20027;-70
2023/09/29 06:46:20;;;;;;;7.55;3.80;;;;;;;17.84;100.00;101243.34;5089419;28;20032;-67
2023/09/29 06:48:46;;;;;;;10.98;4.65;;;;;;;17.83;100.00;101250.63;5088957;28;20051;-69
2023/09/29 06:51:11;;;;;;;5.50;3.08;;;;;;;17.86;100.00;101242.03;5090861;28;20104;-69
2023/09/29 06:53:36;;;;;;;6.43;2.80;;;;;;;17.90;100.00;101248.63;5089455;28;20039;-69
2023/09/29 06:56:02;;;;;;;3.58;2.78;;;;;;;17.90;100.00;101243.22;5089253;28;20070;-69
2023/09/29 06:58:27;;;;;;;5.78;2.55;;;;;;;17.94;100.00;101257.88;5089498;28;20078;-69
2023/09/29 07:00:56;;;;;;;5.65;3.47;;;;;;;17.95;100.00;101251.44;5088740;28;20036;-69
2023/09/29 07:03:22;;;;;;;5.60;2.47;;;;;;;17.96;100.00;101257.66;5090531;28;20055;-69
2023/09/29 07:05:47;;;;;;;5.60;2.95;;;;;;;17.91;100.00;101249.44;5090376;28;20082;-69
2023/09/29 07:08:13;;;;;;;8.68;3.75;;;;;;;17.96;100.00;101253.06;5054656;28;20537;-69
2023/09/29 07:10:40;;;;;;;6.55;2.72;;;;;;;17.98;100.00;101258.25;5090391;28;20027;-70
2023/09/29 07:13:05;;;;;;;6.15;2.95;;;;;;;18.01;100.00;101255.06;5090723;28;20118;-69
2023/09/29 07:15:30;;;;;;;7.20;2.90;;;;;;;18.03;100.00;101260.25;5090270;28;20479;-69
2023/09/29 07:17:56;;;;;;;5.43;2.80;;;;;;;18.04;100.00;101256.47;5090184;28;20028;-69
2023/09/29 07:20:21;;;;;;;7.28;2.95;;;;;;;18.05;100.00;101260.81;5090130;28;20028;-69
2023/09/29 07:22:46;;;;;;;7.00;2.65;;;;;;;18.07;100.00;101264.91;5089782;28;20074;-69
2023/09/29 07:25:14;;;;;;;5.13;2.92;;;;;;;18.10;100.00;101259.06;5089809;28;20050;-70
2023/09/29 07:27:39;;;;;;;3.92;2.92;;;;;;;18.15;100.00;101261.03;5089911;28;20217;-69
2023/09/29 07:30:07;;;;;;;8.20;2.80;;;;;;;18.22;100.00;101259.03;5089851;28;20124;-69
2023/09/29 07:32:32;;;;;;;5.57;2.83;;;;;;;18.28;100.00;101259.94;5089849;28;20028;-69
2023/09/29 07:34:57;;;;;;;4.72;2.80;;;;;;;18.34;100.00;101259.84;5089972;28;20020;-70
2023/09/29 07:37:23;;;;;;;5.10;2.72;;;;;;;18.46;100.00;101269.78;5089970;28;20032;-70
2023/09/29 07:39:48;;;;;;;4.53;2.90;;;;;;;18.59;100.00;101269.50;5090010;28;20028;-69
2023/09/29 07:42:13;;;;;;;4.00;3.00;;;;;;;18.72;100.00;101268.41;5089554;28;20028;-68
2023/09/29 07:44:39;;;;;;;6.60;2.90;;;;;;;18.83;100.00;101273.78;5089678;28;20028;-68
2023/09/29 07:47:05;;;;;;;5.88;3.03;;;;;;;18.93;100.00;101277.75;5089593;28;20027;-68
2023/09/29 07:49:33;;;;;;;5.53;3.50;;;;;;;19.00;100.00;101279.25;5089769;28;20028;-68
2023/09/29 07:51:58;;;;;;;5.40;2.65;;;;;;;19.19;100.00;101279.84;5089553;28;20039;-68
2023/09/29 07:54:24;;;;;;;8.23;3.13;;;;;;;19.35;100.00;101274.72;5089606;28;20088;-68
2023/09/29 07:56:50;;;;;;;5.38;2.90;;;;;;;19.43;100.00;101277.00;5089445;28;20042;-68
2023/09/29 07:59:16;;;;;;;6.65;2.75;;;;;;;19.51;100.00;101282.00;5089422;28;20138;-68
2023/09/29 08:01:42;;;;;;;7.53;3.53;;;;;;;19.60;100.00;101282.44;5089500;28;20111;-68
2023/09/29 08:04:08;;;;;;;4.60;2.30;;;;;;;19.68;100.00;101290.19;5087987;28;20035;-68
2023/09/29 08:06:34;;;;;;;6.72;3.15;;;;;;;19.76;100.00;101295.16;5089427;28;20040;-68
2023/09/29 08:09:00;;;;;;;7.15;2.30;;;;;;;19.85;100.00;101287.44;5088135;28;20552;-68
2023/09/29 08:11:25;;;;;;;4.72;2.95;;;;;;;19.93;100.00;101287.84;5089237;28;20042;-68
2023/09/29 08:13:53;;;;;;;7.55;3.22;;;;;;;20.02;100.00;101299.09;5089540;28;20031;-68
2023/09/29 08:16:19;;;;;;;6.45;2.35;;;;;;;20.04;100.00;101294.25;5089345;28;20032;-68
2023/09/29 08:18:45;;;;;;;6.10;2.67;;;;;;;20.11;100.00;101300.28;5089259;28;20028;-68
2023/09/29 08:21:10;;;;;;;5.70;2.58;;;;;;;20.14;100.00;101296.25;5089207;28;20032;-68
2023/09/29 08:23:37;;;;;;;5.55;2.65;;;;;;;20.27;100.00;101305.91;5089035;28;20048;-68
2023/09/29 08:26:03;;;;;;;4.00;2.03;;;;;;;20.36;100.00;101299.81;5087914;28;20431;-68
2023/09/29 08:28:28;;;;;;;4.95;2.42;;;;;;;20.41;100.00;101292.81;5089190;28;20081;-68
2023/09/29 08:30:53;;;;;;;3.03;2.25;;;;;;;20.49;100.00;101305.94;5089130;28;20051;-68
2023/09/29 08:33:19;;;;;;;12.35;3.65;;;;;;;20.56;100.00;101306.59;5089089;28;20114;-68
2023/09/29 08:35:44;;;;;;;9.27;3.85;;;;;;;20.60;100.00;101324.00;5089056;28;20040;-68
2023/09/29 08:38:09;;;;;;;7.50;2.88;;;;;;;20.64;100.00;101324.31;5089262;28;20020;-68
2023/09/29 08:40:39;;;;;;;7.88;3.40;;;;;;;20.69;100.00;101321.66;5087701;28;20470;-68
2023/09/29 08:43:06;;;;;;;6.13;2.95;;;;;;;20.72;100.00;101323.84;5088810;28;20036;-68
2023/09/29 08:45:32;;;;;;;9.30;2.80;;;;;;;20.77;100.00;101334.75;5087487;28;20024;-68
2023/09/29 08:47:59;;;;;;;5.80;2.72;;;;;;;20.81;100.00;101329.69;5088914;28;20028;-68
2023/09/29 08:50:25;;;;;;;4.63;2.22;;;;;;;20.81;100.00;101332.38;5088888;28;20032;-69
2023/09/29 08:52:52;;;;;;;10.05;2.92;;;;;;;20.72;100.00;101326.56;5088843;28;20488;-68
2023/09/29 08:55:18;;;;;;;12.70;2.70;;;;;;;20.72;100.00;101332.00;5088821;28;20015;-68
2023/09/29 08:57:44;;;;;;;4.95;2.45;;;;;;;20.72;100.00;101340.13;5088759;28;20032;-68
2023/09/29 09:00:13;;;;;;;4.05;2.22;;;;;;;20.72;100.00;101335.53;5088832;28;20031;-68
2023/09/29 09:02:43;;;;;;;6.00;3.13;;;;;;;20.73;100.00;101349.91;5088595;28;20471;-68
2023/09/29 09:05:12;;;;;;;4.75;2.53;;;;;;;20.73;100.00;101352.63;5088682;28;20483;-68
2023/09/29 09:07:40;;;;;;;8.68;3.42;;;;;;;20.69;100.00;101359.59;5088840;28;21022;-68
2023/09/29 09:10:06;;;;;;;8.35;3.15;;;;;;;20.64;100.00;101349.50;5088710;28;20039;-68
2023/09/29 09:12:33;;;;;;;4.65;3.00;;;;;;;20.66;100.00;101350.09;5088661;28;20058;-68
2023/09/29 09:14:59;;;;;;;9.32;3.17;;;;;;;20.76;100.00;101350.22;5088695;28;20039;-68
2023/09/29 09:17:24;;;;;;;8.38;2.88;;;;;;;20.99;100.00;101357.28;5088747;28;20040;-68
2023/09/29 09:19:54;;;;;;;9.48;3.15;;;;;;;21.13;100.00;101356.88;5088589;28;20498;-69
2023/09/29 09:22:26;;;;;;;5.45;3.33;;;;;;;21.14;100.00;101334.94;5087010;28;20458;-68
2023/09/29 09:25:04;;;;;;;6.55;2.78;;;;;;;21.38;100.00;101359.06;5087499;28;20035;-68
2023/09/29 09:27:37;;;;;;;8.70;2.95;;;;;;;21.40;100.00;101367.75;5088734;28;20032;-68
2023/09/29 09:30:04;;;;;;;13.27;2.75;;;;;;;21.34;100.00;101366.03;5088083;28;20506;-68
2023/09/29 09:32:29;;;;;;;7.13;2.60;;;;;;;21.31;100.00;101363.84;5092098;28;20040;-68
2023/09/29 09:34:54;;;;;;;8.50;2.90;;;;;;;21.19;100.00;101374.84;5092205;28;20487;-68
2023/09/29 09:37:27;;;;;;;4.22;2.45;;;;;;;21.07;100.00;101376.88;5092181;28;20051;-68
2023/09/29 09:39:56;;;;;;;6.50;3.13;;;;;;;20.88;100.00;101366.38;5091712;28;20107;-68
2023/09/29 09:42:27;;;;;;;6.20;2.42;;;;;;;20.78;100.00;101385.22;5091999;28;20107;-67
2023/09/29 09:44:59;;;;;;;7.35;2.72;;;;;;;20.60;100.00;101394.47;5091607;28;20035;-68
2023/09/29 09:47:26;;;;;;;5.05;3.35;;;;;;;20.39;100.00;101392.53;5091876;28;20032;-68
2023/09/29 09:49:55;;;;;;;6.22;2.97;;;;;;;20.24;100.00;101393.09;5092020;28;20028;-68
2023/09/29 09:52:39;;;;;;;4.30;2.67;;;;;;;20.06;100.00;101394.19;5091793;28;20040;-67
2023/09/29 09:55:11;;;;;;;5.45;2.60;;;;;;;19.94;100.00;101391.56;5091901;28;20548;-67
2023/09/29 09:57:38;;;;;;;7.18;3.33;;;;;;;19.85;100.00;101385.72;5091947;28;20035;-68
2023/09/29 10:00:10;;;;;;;6.13;2.85;;;;;;;19.93;100.00;101389.91;5091715;28;20028;-68
2023/09/29 10:02:43;;;;;;;8.45;3.30;;;;;;;20.01;100.00;101386.78;5091604;28;20041;-68
2023/09/29 10:05:51;;;;;;;7.00;3.05;;;;;;;20.08;100.00;101398.28;5091472;28;20048;-67
2023/09/29 10:08:07;;;;;;;6.10;2.92;;;;;;;20.11;100.00;101400.47;5090224;28;20506;-68
2023/09/29 10:10:40;;;;;;;9.13;3.55;;;;;;;20.14;100.00;101397.28;5091329;28;20070;-68
2023/09/29 10:13:11;;;;;;;4.50;2.80;;;;;;;20.20;100.00;101397.34;5091501;28;20024;-68
2023/09/29 10:15:39;;;;;;;5.68;2.90;;;;;;;20.26;100.00;101402.63;5091303;28;20035;-68
2023/09/29 10:18:18;;;;;;;5.03;2.72;;;;;;;20.30;100.00;101405.66;5091093;28;20028;-68
2023/09/29 10:20:55;;;;;;;5.85;2.60;;;;;;;20.36;100.00;101402.78;5091603;28;20024;-69
2023/09/29 10:23:24;;;;;;;3.85;2.30;;;;;;;20.44;100.00;101400.72;5090873;28;20454;-68
2023/09/29 10:25:59;;;;;;;6.85;3.03;;;;;;;20.48;100.00;101404.56;5091364;28;20028;-68
2023/09/29 10:28:36;;;;;;;6.10;2.30;;;;;;;20.52;100.00;101401.09;5091036;28;20110;-68
2023/09/29 10:31:15;;;;;;;4.65;2.83;;;;;;;20.59;100.00;101409.06;5089774;28;20027;-68
2023/09/29 10:33:53;;;;;;;5.28;2.88;;;;;;;20.67;100.00;101419.50;5090564;28;20028;-68
2023/09/29 10:36:23;;;;;;;10.48;3.13;;;;;;;20.68;100.00;101409.47;5091168;28;20434;-67
2023/09/29 10:38:50;;;;;;;4.07;2.55;;;;;;;20.69;100.00;101414.63;5091068;28;20367;-68
2023/09/29 10:41:18;;;;;;;7.25;3.13;;;;;;;20.71;100.00;101417.91;5090744;28;20039;-68
2023/09/29 10:43:43;;;;;;;7.10;2.42;;;;;;;20.75;100.00;101421.78;5091087;28;20489;-68
2023/09/29 10:46:09;;;;;;;6.68;2.88;;;;;;;20.82;100.00;101424.28;5090701;28;20044;-68
2023/09/29 10:48:47;;;;;;;8.40;3.20;;;;;;;20.76;100.00;101423.41;5090788;28;20035;-68
2023/09/29 10:51:25;;;;;;;6.25;2.40;;;;;;;20.73;100.00;101432.06;5090379;28;20937;-68
2023/09/29 10:53:51;;;;;;;6.93;2.70;;;;;;;20.63;100.00;101431.91;5090529;28;20065;-68
2023/09/29 10:56:21;;;;;;;7.25;2.70;;;;;;;20.51;100.00;101421.16;5090549;28;20089;-68
2023/09/29 10:58:52;;;;;;;8.55;2.83;;;;;;;20.46;100.00;101429.22;5090599;28;20494;-68
2023/09/29 11:01:32;;;;;;;7.97;2.67;;;;;;;20.41;100.00;101445.38;5090254;28;20050;-67
2023/09/29 11:03:58;;;;;;;8.52;3.88;;;;;;;20.35;100.00;101447.16;5090477;28;20020;-68
2023/09/29 11:06:24;;;;;;;6.07;2.83;;;;;;;20.28;100.00;101443.03;5090144;28;20031;-68
2023/09/29 11:08:54;;;;;;;5.20;2.30;;;;;;;20.36;100.00;101459.66;5090347;28;20433;-68
2023/09/29 11:11:20;;;;;;;5.65;2.67;;;;;;;20.34;100.00;101448.25;5088843;28;20036;-68
2023/09/29 11:13:57;;;;;;;6.93;2.58;;;;;;;20.37;100.00;101457.78;5090392;28;20028;-68
2023/09/29 11:16:25;;;;;;;5.45;2.63;;;;;;;20.40;100.00;101457.28;5088620;28;20118;-68